Marin City, California
Current Conditions -  °F | °C
As of 1:56 AM on Friday 26 Dec 2014 (Local Time) from KSFO Reporting Station
Clear Clear  
Wind Chill: 53°   Ceiling: Unl
Heat Index: 53°   Visibility: 10mi
Dew Point: 39°   Wind: 17mph
Humidity: 59%   Direction: 340°NNW
Pressure: 30.12"   Gusts: NA
Location:  37.8489°N, 122.496°W
Report Text: KSFO 260956Z 34015KT 10SM CLR 12/04 A3012 RMK AO2 SLP198 T01170039
Loading
Personal Weather Stations






























Interactive Weather Map New forecast layout! Learn more

10-Day Weather Forecast

Advertisements
Track Severe Weather on mobile